Time;durP1;ratioP1;P1;durP2;ratioP2;P2;SDS_P1;SDS_P2;PMS_P1;PMS_P2;Temp;Humidity;BMP_temperature;BMP_pressure;BME280_temperature;BME280_humidity;BME280_pressure;Samples;Min_cycle;Max_cycle;Signal;HPM_P1;HPM_P2
2021/12/22 00:01:51;;;;;;;25.65;11.85;;;;;;;0.38;56.96;100824.03;4380263;32;31803;-78
2021/12/22 00:04:25;;;;;;;34.93;13.63;;;;;;;0.37;57.36;100830.41;4392270;32;34680;-78
2021/12/22 00:06:53;;;;;;;32.00;13.30;;;;;;;0.38;57.47;100834.84;4368925;32;32838;-78
2021/12/22 00:09:24;;;;;;;33.80;13.43;;;;;;;0.47;57.32;100831.44;4392538;32;34046;-78
2021/12/22 00:11:54;;;;;;;30.33;12.97;;;;;;;0.49;57.10;100833.03;4392671;32;33361;-78
2021/12/22 00:14:26;;;;;;;30.67;12.83;;;;;;;0.53;57.39;100833.69;4392671;32;34212;-78
2021/12/22 00:16:54;;;;;;;30.37;13.40;;;;;;;0.49;57.26;100835.75;4392404;32;34345;-78
2021/12/22 00:19:21;;;;;;;25.58;11.00;;;;;;;0.56;56.88;100826.19;4392782;32;33883;-79
2021/12/22 00:21:52;;;;;;;24.73;11.77;;;;;;;0.46;57.11;100844.06;4392529;32;33576;-78
2021/12/22 00:24:22;;;;;;;25.27;11.77;;;;;;;0.66;56.34;100843.41;4392389;32;33191;-78
2021/12/22 00:26:54;;;;;;;19.80;10.73;;;;;;;0.56;56.59;100853.22;4392039;32;34492;-78
2021/12/22 00:29:23;;;;;;;19.50;9.00;;;;;;;0.22;57.73;100859.41;4392426;32;34649;-78
2021/12/22 00:32:09;;;;;;;21.37;11.47;;;;;;;0.61;56.55;100863.66;4392481;32;32127;-78
2021/12/22 00:34:45;;;;;;;61.10;37.63;;;;;;;0.57;56.27;100871.13;4381447;32;34467;-78
2021/12/22 00:37:19;;;;;;;50.63;31.00;;;;;;;0.32;56.98;100880.22;4392342;32;35231;-78
2021/12/22 00:39:50;;;;;;;31.55;18.70;;;;;;;0.22;57.22;100884.56;4392355;32;33893;-78
2021/12/22 00:42:21;;;;;;;28.83;16.80;;;;;;;0.40;56.84;100876.09;4392114;32;33351;-78
2021/12/22 00:44:53;;;;;;;44.40;32.97;;;;;;;0.52;56.56;100884.13;4392364;32;33838;-78
2021/12/22 00:47:23;;;;;;;19.77;10.80;;;;;;;0.57;56.76;100886.47;4392584;32;34699;-78
2021/12/22 00:49:51;;;;;;;22.87;13.67;;;;;;;0.47;57.16;100885.44;4392382;32;33940;-78
2021/12/22 00:52:22;;;;;;;20.03;10.73;;;;;;;0.37;57.74;100885.28;4379951;32;34113;-78
2021/12/22 00:54:50;;;;;;;18.10;8.40;;;;;;;0.38;58.03;100881.59;4392205;32;33587;-78
2021/12/22 00:57:17;;;;;;;16.97;8.13;;;;;;;0.56;57.72;100879.34;4379697;32;32843;-78
2021/12/22 00:59:46;;;;;;;17.63;7.73;;;;;;;0.37;58.40;100879.88;4392373;32;33994;-78
2021/12/22 01:02:19;;;;;;;18.30;9.57;;;;;;;0.61;57.54;100891.53;4392286;32;33250;-78
2021/12/22 01:04:47;;;;;;;20.07;9.40;;;;;;;0.55;57.90;100891.13;4392517;32;34431;-78
2021/12/22 01:07:15;;;;;;;25.23;13.80;;;;;;;0.73;57.50;100896.97;4392560;32;35153;-78
2021/12/22 01:09:43;;;;;;;23.20;11.10;;;;;;;0.50;58.09;100893.31;4392445;32;33974;-78
2021/12/22 01:12:11;;;;;;;26.63;13.10;;;;;;;0.28;58.54;100903.03;4392502;32;32815;-78
2021/12/22 01:14:40;;;;;;;21.13;12.00;;;;;;;0.47;58.04;100897.13;4392262;32;32318;-78
2021/12/22 01:17:11;;;;;;;26.47;14.03;;;;;;;0.49;58.18;100897.00;4379534;32;34281;-78
2021/12/22 01:19:57;;;;;;;27.27;15.07;;;;;;;0.61;57.99;100901.47;4392492;32;34022;-78
2021/12/22 01:25:03;;;;;;;19.10;10.47;;;;;;;0.52;58.20;100902.16;4392588;32;33436;-78
2021/12/22 01:27:35;;;;;;;20.17;10.50;;;;;;;0.59;58.21;100893.50;4368083;32;33732;-78
2021/12/22 01:30:09;;;;;;;26.70;12.03;;;;;;;0.89;57.31;100909.19;4392240;32;34626;-78
2021/12/22 01:32:42;;;;;;;21.47;12.87;;;;;;;0.73;57.78;100907.78;4391920;32;32504;-78
2021/12/22 01:35:12;;;;;;;24.93;13.40;;;;;;;0.76;57.65;100897.59;4392246;32;33750;-78
2021/12/22 01:37:42;;;;;;;22.50;12.37;;;;;;;0.78;57.70;100898.34;4391910;32;32812;-78
2021/12/22 01:40:11;;;;;;;16.87;9.57;;;;;;;0.74;57.46;100904.09;4391273;32;33770;-78
2021/12/22 01:42:40;;;;;;;18.27;8.70;;;;;;;0.53;58.23;100902.06;4379230;32;31767;-78
2021/12/22 01:50:47;;;;;;;20.15;8.93;;;;;;;0.68;57.59;100907.25;4381279;32;33491;-78
2021/12/22 01:53:20;;;;;;;18.37;7.80;;;;;;;0.83;57.17;100904.25;4391681;32;32966;-79
2021/12/22 01:56:12;;;;;;;19.53;8.67;;;;;;;0.86;57.29;100903.16;4391659;32;32380;-78
2021/12/22 01:58:44;;;;;;;19.43;8.97;;;;;;;0.64;57.64;100904.81;4403876;32;34608;-78
2021/12/22 02:01:12;;;;;;;20.07;9.10;;;;;;;0.63;57.78;100903.09;4391786;32;33291;-78
2021/12/22 02:03:40;;;;;;;15.23;8.63;;;;;;;0.84;56.99;100911.37;4391707;32;33329;-78
2021/12/22 02:06:10;;;;;;;21.47;10.27;;;;;;;0.88;57.11;100910.16;4391545;32;33072;-78
2021/12/22 02:08:38;;;;;;;20.63;9.67;;;;;;;0.62;57.90;100911.31;4379188;32;35144;-73
2021/12/22 02:11:07;;;;;;;20.27;10.13;;;;;;;0.94;57.17;100908.84;4379444;32;34279;-73
2021/12/22 02:13:39;;;;;;;16.07;8.53;;;;;;;1.11;57.51;100913.81;4391278;32;33474;-73
2021/12/22 02:16:13;;;;;;;22.07;10.43;;;;;;;0.93;57.32;100910.69;4392628;32;34460;-73
2021/12/22 02:18:45;;;;;;;24.40;11.17;;;;;;;1.15;56.47;100901.78;4391517;32;34595;-73
2021/12/22 02:21:13;;;;;;;23.80;11.70;;;;;;;1.20;56.27;100907.69;4391449;32;33159;-73
2021/12/22 02:23:44;;;;;;;24.20;11.50;;;;;;;0.95;57.01;100913.28;4391407;32;33280;-73
2021/12/22 02:26:20;;;;;;;26.27;10.37;;;;;;;0.88;57.14;100912.88;4391570;32;33737;-73
2021/12/22 02:28:56;;;;;;;20.25;10.77;;;;;;;1.15;60.99;100915.31;4380062;32;34615;-73
2021/12/22 02:31:24;;;;;;;18.77;9.60;;;;;;;1.26;57.82;100906.38;4391348;32;34001;-74
2021/12/22 02:33:53;;;;;;;18.83;9.70;;;;;;;1.59;64.17;100903.69;4391290;32;31666;-73
2021/12/22 02:36:24;;;;;;;17.57;9.47;;;;;;;1.52;66.88;100907.84;4391104;32;33524;-72
2021/12/22 02:38:54;;;;;;;17.20;9.03;;;;;;;1.79;63.43;100906.66;4390831;32;35403;-73
2021/12/22 02:41:26;;;;;;;20.73;8.90;;;;;;;1.99;58.44;100901.31;4391737;32;34012;-73
2021/12/22 02:43:56;;;;;;;15.17;8.57;;;;;;;1.77;55.94;100909.47;4393913;32;32007;-74
2021/12/22 02:46:29;;;;;;;16.90;7.83;;;;;;;1.81;55.42;100913.66;4393783;32;34521;-74
2021/12/22 02:48:57;;;;;;;16.97;7.67;;;;;;;1.73;55.19;100904.44;4392985;32;34432;-74
2021/12/22 02:51:28;;;;;;;13.80;7.37;;;;;;;1.75;54.64;100914.16;4367503;32;34251;-82
2021/12/22 02:59:35;;;;;;;11.67;7.20;;;;;;;1.68;54.30;100912.91;4353971;32;33833;-81
2021/12/22 03:02:21;;;;;;;13.23;7.07;;;;;;;1.52;54.82;100907.00;4367845;32;33749;-82
2021/12/22 03:04:56;;;;;;;;;;;;;;;1.82;54.22;100909.09;4355464;32;33123;-81
2021/12/22 03:07:28;;;;;;;14.27;7.13;;;;;;;1.59;54.61;100909.09;4377425;32;33350;-81
2021/12/22 03:10:00;;;;;;;14.10;6.53;;;;;;;1.72;54.37;100919.81;4354013;32;34221;-81
2021/12/22 03:12:32;;;;;;;13.63;6.70;;;;;;;1.67;54.55;100924.72;4353583;32;34748;-81
2021/12/22 03:15:01;;;;;;;14.57;6.40;;;;;;;1.78;54.32;100924.72;4353724;32;33221;-81
2021/12/22 03:17:29;;;;;;;14.40;6.47;;;;;;;1.65;54.91;100927.53;4353432;32;33682;-81
2021/12/22 03:19:59;;;;;;;13.40;7.07;;;;;;;1.76;54.81;100931.25;4352876;32;34192;-81
2021/12/22 03:22:30;;;;;;;12.90;6.20;;;;;;;1.65;55.06;100927.53;4352901;32;34366;-81
2021/12/22 03:25:00;;;;;;;14.87;6.73;;;;;;;1.74;54.89;100930.50;4353116;32;32909;-81
2021/12/22 03:27:28;;;;;;;15.50;6.30;;;;;;;1.72;54.76;100925.22;4353237;32;34652;-81
2021/12/22 03:29:56;;;;;;;10.97;5.80;;;;;;;1.67;54.95;100924.72;4352999;32;32954;-81
2021/12/22 03:32:24;;;;;;;11.40;6.00;;;;;;;1.87;54.48;100933.97;4352815;32;32392;-82
2021/12/22 03:34:55;;;;;;;12.60;6.93;;;;;;;1.88;54.35;100927.56;4353363;32;33292;-82
2021/12/22 03:37:24;;;;;;;13.70;6.47;;;;;;;1.83;54.28;100924.38;4365569;32;34122;-81
2021/12/22 03:39:53;;;;;;;11.47;5.73;;;;;;;1.83;54.28;100936.06;4365593;32;32977;-82
2021/12/22 03:42:21;;;;;;;14.20;5.63;;;;;;;1.68;54.80;100934.56;4350487;32;33854;-81
2021/12/22 03:44:51;;;;;;;10.77;5.80;;;;;;;1.57;55.26;100938.13;4363116;32;33372;-81
2021/12/22 03:47:20;;;;;;;12.00;6.13;;;;;;;1.68;54.96;100939.13;4362819;32;32072;-81
2021/12/22 03:49:48;;;;;;;11.13;5.33;;;;;;;1.78;54.88;100930.16;4350672;32;32878;-82
2021/12/22 03:52:16;;;;;;;11.00;5.60;;;;;;;1.68;54.84;100945.37;4350500;32;32478;-81
2021/12/22 03:54:47;;;;;;;13.80;7.03;;;;;;;1.73;54.79;100943.19;4362856;32;33055;-81
2021/12/22 03:57:15;;;;;;;13.90;6.80;;;;;;;1.75;54.91;100938.50;4362592;32;32306;-81
2021/12/22 03:59:42;;;;;;;13.17;6.33;;;;;;;1.86;54.57;100933.09;4354901;32;34098;-82
2021/12/22 04:02:11;;;;;;;11.37;6.33;;;;;;;1.86;54.32;100926.81;4350022;32;33850;-81
2021/12/22 04:04:44;;;;;;;11.87;6.27;;;;;;;1.66;54.25;100939.22;4363039;32;31695;-82
2021/12/22 04:07:14;;;;;;;12.80;6.40;;;;;;;1.70;53.95;100931.72;4363414;32;33545;-82
2021/12/22 04:09:44;;;;;;;15.57;6.67;;;;;;;1.67;54.02;100935.53;4362802;32;34261;-82
2021/12/22 04:12:12;;;;;;;14.70;7.17;;;;;;;1.67;54.04;100949.06;4350445;32;34047;-82
2021/12/22 04:14:42;;;;;;;12.13;5.67;;;;;;;1.35;55.74;100943.47;4362427;32;32261;-82
2021/12/22 04:17:12;;;;;;;13.17;5.80;;;;;;;1.68;54.89;100949.94;4362523;32;33067;-82
2021/12/22 04:19:43;;;;;;;10.13;5.30;;;;;;;1.62;55.01;100952.13;4362686;32;33564;-82
2021/12/22 04:22:11;;;;;;;11.38;5.22;;;;;;;1.77;55.06;100954.63;4350163;32;32164;-82
2021/12/22 04:24:41;;;;;;;12.23;6.07;;;;;;;1.58;55.25;100953.38;4362868;32;31502;-81
2021/12/22 04:27:09;;;;;;;13.73;5.90;;;;;;;1.65;54.81;100968.13;4350015;32;33180;-81
2021/12/22 04:29:41;;;;;;;11.77;6.07;;;;;;;1.58;55.42;100964.19;4362564;32;34948;-82
2021/12/22 04:32:11;;;;;;;11.02;5.65;;;;;;;1.67;55.10;100965.31;4350182;32;33090;-81
2021/12/22 04:34:40;;;;;;;12.10;6.20;;;;;;;1.65;55.11;100965.44;4362170;32;32342;-82
2021/12/22 04:37:10;;;;;;;10.95;5.45;;;;;;;1.76;54.87;100964.59;4350116;32;33188;-82
2021/12/22 04:39:38;;;;;;;10.48;5.40;;;;;;;1.84;54.65;100966.69;4350367;32;33918;-81
2021/12/22 04:42:06;;;;;;;13.57;5.72;;;;;;;1.85;54.67;100968.41;4337888;32;34571;-82
2021/12/22 04:44:36;;;;;;;13.50;5.78;;;;;;;1.76;54.89;100963.72;4350335;32;33217;-81
2021/12/22 04:47:07;;;;;;;12.63;5.78;;;;;;;1.63;54.80;100970.09;4362324;32;33802;-81
2021/12/22 04:49:40;;;;;;;13.85;5.93;;;;;;;1.76;54.35;100963.72;4362980;32;35154;-81
2021/12/22 04:52:09;;;;;;;12.05;5.93;;;;;;;1.85;54.05;100961.16;4350371;32;34124;-82
2021/12/22 04:55:03;;;;;;;11.80;5.70;;;;;;;1.81;54.16;100956.97;4362604;32;33253;-82
2021/12/22 04:57:34;;;;;;;14.52;6.32;;;;;;;1.87;54.17;100958.31;4361259;32;33381;-81
2021/12/22 05:00:07;;;;;;;9.97;5.53;;;;;;;1.81;54.45;100959.66;4349984;32;32847;-82
2021/12/22 05:02:38;;;;;;;12.87;6.10;;;;;;;1.80;54.40;100966.06;4363309;32;34624;-82
2021/12/22 05:05:06;;;;;;;22.10;8.82;;;;;;;1.75;54.67;100962.87;4350131;32;31598;-82
2021/12/22 05:07:37;;;;;;;53.33;21.00;;;;;;;1.94;54.46;100963.13;4337839;32;33300;-81
2021/12/22 05:10:08;;;;;;;19.63;8.43;;;;;;;1.73;55.01;100962.13;4362259;32;32546;-81
2021/12/22 05:12:37;;;;;;;11.95;5.85;;;;;;;1.96;54.49;100960.25;4346126;32;32507;-81
2021/12/22 05:15:10;;;;;;;17.95;9.07;;;;;;;1.81;54.71;100959.66;4361822;32;33934;-81
2021/12/22 05:18:11;;;;;;;22.37;9.57;;;;;;;1.72;54.80;100973.06;4362385;32;33917;-81
2021/12/22 05:20:29;;;;;;;20.67;8.80;;;;;;;1.63;55.14;100978.22;4339725;32;34598;-82
2021/12/22 05:22:57;;;;;;;17.03;8.70;;;;;;;1.74;55.07;100971.09;4362461;32;34839;-82
2021/12/22 05:25:27;;;;;;;16.27;8.80;;;;;;;1.59;55.13;100974.03;4349824;32;32676;-82
2021/12/22 05:27:54;;;;;;;18.57;9.50;;;;;;;1.70;55.07;100975.91;4350077;32;34621;-82
2021/12/22 05:30:23;;;;;;;14.20;7.13;;;;;;;1.77;54.82;100973.56;4349942;32;33526;-82
2021/12/22 05:32:55;;;;;;;12.97;7.37;;;;;;;1.65;55.36;100981.66;4337496;32;32460;-82
2021/12/22 05:35:24;;;;;;;13.83;6.20;;;;;;;1.75;54.98;100980.94;4362304;32;32121;-81
2021/12/22 05:37:51;;;;;;;16.37;7.63;;;;;;;1.95;54.48;100977.53;4362149;32;33315;-82
2021/12/22 05:40:27;;;;;;;22.27;10.73;;;;;;;1.58;55.47;100983.13;4361867;32;33888;-82
2021/12/22 05:42:58;;;;;;;16.90;8.67;;;;;;;1.77;54.95;100978.97;4361704;32;32788;-82
2021/12/22 05:45:26;;;;;;;17.40;8.07;;;;;;;1.62;55.54;100989.16;4349721;32;32712;-82
2021/12/22 05:47:54;;;;;;;19.40;9.93;;;;;;;1.81;55.09;100994.00;4349589;32;32961;-73
2021/12/22 05:50:23;;;;;;;20.37;10.17;;;;;;;1.79;55.04;100993.25;4361439;32;34290;-74
2021/12/22 05:52:50;;;;;;;18.37;8.23;;;;;;;1.81;54.79;100992.16;4374137;32;34755;-74
2021/12/22 05:55:18;;;;;;;17.57;7.43;;;;;;;1.78;54.71;100986.97;4374081;32;34120;-73
2021/12/22 05:57:48;;;;;;;16.80;8.07;;;;;;;1.64;55.68;100998.03;4349382;32;31990;-73
2021/12/22 06:00:16;;;;;;;16.60;8.70;;;;;;;1.79;58.84;101001.38;4325029;32;33000;-73
2021/12/22 06:02:46;;;;;;;18.50;8.43;;;;;;;1.96;57.29;100995.47;4361655;32;34082;-73
2021/12/22 06:05:14;;;;;;;16.57;8.07;;;;;;;2.00;55.22;100991.53;4361688;32;33254;-73
2021/12/22 06:07:41;;;;;;;15.27;7.30;;;;;;;2.03;54.38;100999.41;4349029;32;32003;-73
2021/12/22 06:10:12;;;;;;;16.50;7.53;;;;;;;1.98;54.19;101009.72;4373955;32;34445;-73
2021/12/22 06:12:40;;;;;;;15.43;7.27;;;;;;;1.80;54.30;101011.22;4361560;32;32588;-73
2021/12/22 06:15:08;;;;;;;13.63;6.13;;;;;;;1.95;53.79;101015.44;4361632;32;33273;-73
2021/12/22 06:17:36;;;;;;;14.20;5.97;;;;;;;1.78;54.02;101015.88;4362716;32;33733;-73
2021/12/22 06:20:04;;;;;;;11.97;6.23;;;;;;;1.72;54.08;101014.53;4361458;32;34266;-73
2021/12/22 06:22:34;;;;;;;13.10;6.57;;;;;;;1.74;53.83;101023.37;4361430;32;33887;-72
2021/12/22 06:25:02;;;;;;;11.80;6.27;;;;;;;1.71;53.73;101026.31;4374126;32;33410;-72
2021/12/22 06:27:29;;;;;;;13.10;6.87;;;;;;;1.58;53.79;101029.13;4363622;32;33614;-73
2021/12/22 06:29:57;;;;;;;13.70;7.25;;;;;;;1.29;54.96;101036.78;4375536;32;34157;-74
2021/12/22 06:32:25;;;;;;;13.50;6.93;;;;;;;1.49;54.42;101035.25;4375628;32;34425;-79
2021/12/22 06:34:52;;;;;;;12.57;6.57;;;;;;;1.46;54.31;101035.47;4364993;32;33019;-73
2021/12/22 06:37:20;;;;;;;12.03;5.97;;;;;;;1.99;67.48;101036.69;4375593;32;33865;-73
2021/12/22 06:39:47;;;;;;;11.03;6.47;;;;;;;2.02;62.95;101035.59;4364086;32;34232;-73
2021/12/22 06:42:15;;;;;;;11.57;5.87;;;;;;;1.89;57.85;101040.28;4363445;32;34134;-73
2021/12/22 06:44:42;;;;;;;13.17;6.20;;;;;;;1.80;55.82;101051.81;4363272;32;33928;-73
2021/12/22 06:47:10;;;;;;;12.27;5.77;;;;;;;1.76;55.09;101062.00;4364325;32;33691;-73
2021/12/22 06:49:38;;;;;;;11.60;6.20;;;;;;;1.79;54.77;101066.31;4364394;32;34657;-73
2021/12/22 06:52:08;;;;;;;19.10;6.53;;;;;;;1.64;55.11;101062.97;4384636;32;33905;-73
2021/12/22 06:54:36;;;;;;;13.23;6.73;;;;;;;1.59;55.07;101066.00;4365781;32;31905;-73
2021/12/22 06:57:03;;;;;;;16.27;7.10;;;;;;;1.71;54.89;101074.19;4379399;32;33752;-73
2021/12/22 06:59:32;;;;;;;12.47;7.07;;;;;;;1.69;54.90;101059.91;4380229;32;35293;-73
2021/12/22 07:02:02;;;;;;;16.70;7.43;;;;;;;1.52;55.40;101070.16;4393006;32;34677;-73
2021/12/22 07:04:29;;;;;;;13.97;7.27;;;;;;;1.65;55.24;101065.53;4380643;32;34058;-73
2021/12/22 07:06:57;;;;;;;17.13;7.97;;;;;;;1.55;55.32;101075.34;4392611;32;33769;-73
2021/12/22 07:09:26;;;;;;;14.45;7.28;;;;;;;1.55;55.36;101075.34;4380279;32;34448;-73
2021/12/22 07:11:53;;;;;;;17.17;7.60;;;;;;;1.57;55.63;101081.50;4380511;32;34600;-73
2021/12/22 07:14:21;;;;;;;11.43;6.53;;;;;;;1.47;56.00;101085.88;4380546;32;33678;-73
2021/12/22 07:16:49;;;;;;;13.77;6.83;;;;;;;1.59;55.70;101078.69;4380371;32;34613;-73
2021/12/22 07:19:16;;;;;;;17.80;8.27;;;;;;;1.77;55.33;101079.97;4394027;32;34047;-73
2021/12/22 07:21:44;;;;;;;17.23;8.15;;;;;;;1.81;55.25;101069.78;4368051;32;32034;-73
2021/12/22 07:24:14;;;;;;;16.63;8.10;;;;;;;1.65;55.60;101070.09;4368609;32;33260;-73
2021/12/22 07:26:44;;;;;;;15.90;7.97;;;;;;;1.71;55.70;101074.19;4380498;32;34610;-73
2021/12/22 07:29:12;;;;;;;14.33;7.73;;;;;;;1.48;56.27;101082.19;4380567;32;32904;-73
2021/12/22 07:31:40;;;;;;;17.73;8.07;;;;;;;1.87;55.21;101083.69;4380293;32;32610;-72
2021/12/22 07:34:15;;;;;;;18.17;8.23;;;;;;;1.79;55.45;101082.56;4376114;32;32923;-73
2021/12/22 07:37:14;;;;;;;12.50;6.97;;;;;;;1.82;55.31;101085.03;4377712;32;33750;-73
2021/12/22 07:39:41;;;;;;;15.70;7.53;;;;;;;1.91;55.36;101089.75;4352816;32;35185;-72
2021/12/22 07:42:09;;;;;;;16.27;7.33;;;;;;;1.82;55.57;101083.19;4383045;32;34021;-73
2021/12/22 07:44:37;;;;;;;15.07;7.82;;;;;;;1.89;55.38;101083.56;4392639;32;33464;-73
2021/12/22 07:47:04;;;;;;;14.82;8.25;;;;;;;2.03;55.11;101075.22;4392705;32;33300;-73
2021/12/22 07:49:32;;;;;;;21.87;8.57;;;;;;;2.03;55.35;101091.47;4392686;32;33870;-73
2021/12/22 07:52:00;;;;;;;15.00;7.70;;;;;;;1.92;55.85;101100.44;4392536;32;34003;-73
2021/12/22 07:54:27;;;;;;;16.30;8.83;;;;;;;2.02;55.45;101097.84;4392872;32;33982;-73
2021/12/22 07:56:58;;;;;;;14.30;7.57;;;;;;;2.24;55.04;101100.63;4394051;32;33703;-73
2021/12/22 07:59:28;;;;;;;14.77;7.67;;;;;;;2.10;55.27;101108.94;4393432;32;34534;-73
2021/12/22 08:01:57;;;;;;;16.90;8.57;;;;;;;2.16;54.61;101111.19;4405107;32;33806;-73
2021/12/22 08:04:25;;;;;;;17.50;8.20;;;;;;;2.31;54.11;101111.81;4394131;32;33572;-73
2021/12/22 08:06:52;;;;;;;17.20;8.75;;;;;;;2.18;54.51;101109.22;4392790;32;33657;-73
2021/12/22 08:09:25;;;;;;;13.70;7.60;;;;;;;2.32;53.76;101108.13;4393628;32;34439;-73
2021/12/22 08:11:55;;;;;;;14.68;7.50;;;;;;;2.34;53.59;101108.00;4393826;32;34097;-73
2021/12/22 08:14:23;;;;;;;17.30;7.05;;;;;;;2.30;53.18;101113.66;4392689;32;34103;-73
2021/12/22 08:16:53;;;;;;;13.52;6.75;;;;;;;2.31;52.88;101118.09;4380070;32;32898;-73
2021/12/22 08:19:21;;;;;;;15.00;7.87;;;;;;;2.25;52.83;101113.16;4392091;32;35187;-73
2021/12/22 08:21:48;;;;;;;12.37;7.33;;;;;;;2.55;52.25;101120.72;4392094;32;32404;-73
2021/12/22 08:24:16;;;;;;;15.27;8.10;;;;;;;2.55;52.46;101112.59;4392409;32;34274;-73
2021/12/22 08:26:46;;;;;;;15.60;7.57;;;;;;;2.73;52.12;101118.34;4392298;32;33875;-73
2021/12/22 08:29:14;;;;;;;15.37;7.73;;;;;;;2.79;51.60;101117.84;4392360;32;32991;-73
2021/12/22 08:31:42;;;;;;;15.77;8.60;;;;;;;2.78;51.50;101126.97;4392330;32;33678;-73
2021/12/22 08:34:11;;;;;;;15.67;8.40;;;;;;;2.86;51.08;101129.94;4392309;32;33232;-73
2021/12/22 08:39:26;;;;;;;15.52;8.02;;;;;;;2.93;50.96;101130.31;4392189;32;34346;-75
2021/12/22 08:41:54;;;;;;;16.58;8.25;;;;;;;3.02;50.56;101134.97;4391773;32;33997;-72
2021/12/22 08:44:22;;;;;;;15.63;7.37;;;;;;;2.91;50.67;101137.69;4392542;32;33134;-72
2021/12/22 08:46:51;;;;;;;19.15;8.98;;;;;;;3.18;64.49;101140.00;4393508;32;33424;-73
2021/12/22 08:49:20;;;;;;;19.33;8.45;;;;;;;3.44;58.44;101140.53;4393458;32;34244;-74
2021/12/22 08:51:48;;;;;;;14.50;7.78;;;;;;;3.28;51.44;101147.25;4393512;32;33811;-73
2021/12/22 08:54:19;;;;;;;16.07;6.73;;;;;;;3.36;50.02;101140.31;4379892;32;32989;-74
2021/12/22 08:56:48;;;;;;;15.57;7.10;;;;;;;3.37;49.49;101129.34;4392361;32;33842;-74
2021/12/22 08:59:16;;;;;;;16.75;8.25;;;;;;;3.30;48.81;101137.12;4392093;32;34434;-74
2021/12/22 09:01:46;;;;;;;20.05;8.20;;;;;;;3.42;48.64;101142.53;4391845;32;34071;-74
2021/12/22 09:04:17;;;;;;;14.07;6.80;;;;;;;3.40;48.58;101139.94;4392334;32;33476;-73
2021/12/22 09:06:48;;;;;;;16.87;8.17;;;;;;;3.33;48.06;101140.56;4392628;32;33604;-74
2021/12/22 09:09:17;;;;;;;15.98;5.85;;;;;;;3.39;47.97;101142.78;4392022;32;34255;-74
2021/12/22 09:11:46;;;;;;;14.97;6.53;;;;;;;3.32;48.19;101142.41;4379619;32;31798;-74
2021/12/22 09:14:14;;;;;;;11.55;5.57;;;;;;;3.37;47.35;101134.75;4392180;32;31805;-74
2021/12/22 09:16:42;;;;;;;15.70;6.97;;;;;;;3.35;47.15;101134.03;4379636;32;32286;-74
2021/12/22 09:19:10;;;;;;;14.67;6.53;;;;;;;3.51;46.41;101137.19;4392075;32;35159;-73
2021/12/22 09:21:39;;;;;;;14.33;5.67;;;;;;;3.49;45.87;101138.31;4393339;32;33968;-74
2021/12/22 09:24:06;;;;;;;11.00;5.28;;;;;;;3.31;45.56;101135.28;4379706;32;31822;-73
2021/12/22 09:26:35;;;;;;;14.20;6.55;;;;;;;3.47;45.72;101135.72;4393586;32;33756;-74
2021/12/22 09:29:03;;;;;;;13.63;6.17;;;;;;;3.51;45.55;101142.63;4392122;32;34283;-74
2021/12/22 09:31:34;;;;;;;14.32;6.62;;;;;;;3.47;44.89;101140.28;4392050;32;34063;-74
2021/12/22 09:34:05;;;;;;;10.93;5.07;;;;;;;3.57;45.73;101143.97;4389985;32;33227;-73
2021/12/22 09:36:33;;;;;;;14.02;6.57;;;;;;;3.59;45.47;101142.84;4380139;32;33604;-74
2021/12/22 09:39:06;;;;;;;11.45;5.87;;;;;;;3.54;45.73;101144.22;4379358;32;35246;-74
2021/12/22 09:41:37;;;;;;;10.45;5.82;;;;;;;3.52;44.53;101147.06;4392873;32;34066;-74
2021/12/22 09:44:07;;;;;;;15.07;6.70;;;;;;;3.47;44.91;101145.72;4379334;32;31839;-74
2021/12/22 09:46:38;;;;;;;14.45;6.72;;;;;;;3.71;44.79;101137.38;4379768;32;33646;-74
2021/12/22 09:49:35;;;;;;;15.07;6.93;;;;;;;3.59;44.59;101137.41;4392923;32;34660;-73
2021/12/22 09:52:17;;;;;;;13.80;5.82;;;;;;;3.98;44.16;101143.16;4381934;32;33752;-73
2021/12/22 09:54:54;;;;;;;12.90;6.70;;;;;;;4.00;43.90;101134.87;4390878;32;32897;-73
2021/12/22 09:57:23;;;;;;;14.23;6.43;;;;;;;3.71;43.44;101123.81;4378375;32;34229;-74
2021/12/22 09:59:52;;;;;;;18.95;7.03;;;;;;;3.80;43.95;101126.59;4378586;32;34315;-74
2021/12/22 10:02:22;;;;;;;18.48;8.50;;;;;;;3.92;44.54;101130.09;4392951;32;34782;-74
2021/12/22 10:04:50;;;;;;;15.55;8.50;;;;;;;3.87;44.42;101129.66;4392937;32;33243;-74
2021/12/22 10:07:26;;;;;;;16.85;8.43;;;;;;;3.80;45.75;101125.75;4392697;32;34683;-74
2021/12/22 10:10:09;;;;;;;16.70;8.18;;;;;;;3.85;45.79;101123.50;4383156;32;34251;-74
2021/12/22 10:12:39;;;;;;;22.77;8.10;;;;;;;3.89;44.91;101127.69;4384935;32;33731;-74
2021/12/22 10:15:12;;;;;;;16.92;8.02;;;;;;;3.93;45.14;101129.97;4384489;32;33040;-74
2021/12/22 10:17:46;;;;;;;18.95;7.25;;;;;;;4.05;45.20;101122.63;4372908;32;32487;-74
2021/12/22 10:20:20;;;;;;;16.50;7.35;;;;;;;3.94;45.92;101128.97;4382868;32;35163;-74
2021/12/22 10:22:49;;;;;;;16.80;7.30;;;;;;;3.99;45.38;101128.59;4370092;32;33372;-74
2021/12/22 10:25:23;;;;;;;16.30;7.37;;;;;;;3.85;44.50;101128.94;4372982;32;33342;-74
2021/12/22 10:28:04;;;;;;;14.50;6.65;;;;;;;4.08;43.77;101119.66;4384275;32;34754;-73
2021/12/22 10:30:36;;;;;;;14.10;7.68;;;;;;;3.94;44.35;101117.25;4398237;32;34686;-74
2021/12/22 10:33:15;;;;;;;15.15;7.47;;;;;;;3.86;44.38;101120.66;4373992;32;33068;-74
2021/12/22 10:35:46;;;;;;;16.05;8.00;;;;;;;3.88;43.59;101123.25;4382816;32;32925;-74
2021/12/22 10:38:16;;;;;;;17.42;7.00;;;;;;;4.18;42.92;101115.13;4389032;32;33783;-74
2021/12/22 10:40:50;;;;;;;13.60;7.55;;;;;;;3.94;43.07;101109.09;4381597;32;34305;-74
2021/12/22 10:43:28;;;;;;;12.95;6.87;;;;;;;3.75;44.34;101114.41;4393764;32;32581;-74
2021/12/22 10:45:59;;;;;;;19.05;7.57;;;;;;;3.94;43.84;101120.81;4394190;32;34202;-74
2021/12/22 10:51:26;;;;;;;13.05;7.75;;;;;;;3.81;42.79;101106.59;4407983;32;35053;-74
2021/12/22 10:53:59;;;;;;;13.45;7.07;;;;;;;4.06;42.94;101109.91;4394843;32;33539;-74
2021/12/22 10:56:36;;;;;;;33.60;10.40;;;;;;;4.03;42.78;101100.16;4382295;32;33385;-74
2021/12/22 10:59:12;;;;;;;17.98;8.00;;;;;;;4.15;43.20;101107.25;4393682;32;34660;-74
2021/12/22 11:01:41;;;;;;;;;;;;;;;4.19;43.17;101116.88;4408114;32;34979;-74
2021/12/22 11:04:21;;;;;;;21.92;8.95;;;;;;;4.33;43.21;101112.09;4388911;32;34850;-74
2021/12/22 11:06:56;;;;;;;28.40;9.60;;;;;;;4.54;42.80;101105.63;4366344;32;31990;-74
2021/12/22 11:09:24;;;;;;;21.50;8.55;;;;;;;4.36;42.88;101098.22;4391982;32;34627;-74
2021/12/22 11:11:55;;;;;;;18.17;7.75;;;;;;;4.19;42.81;101099.69;4377822;32;34659;-75
2021/12/22 11:14:30;;;;;;;17.45;8.82;;;;;;;4.35;43.28;101096.50;4368073;32;32345;-74
2021/12/22 11:17:12;;;;;;;17.63;8.70;;;;;;;4.25;43.20;101102.75;4368175;32;31946;-74
2021/12/22 11:19:50;;;;;;;18.55;8.75;;;;;;;4.18;43.71;101096.12;4379459;32;33751;-74
2021/12/22 11:22:22;;;;;;;29.73;10.57;;;;;;;4.10;44.04;101095.94;4380087;32;33116;-74
2021/12/22 11:24:57;;;;;;;20.50;10.32;;;;;;;4.34;43.23;101094.78;4383137;32;34095;-74
2021/12/22 11:27:27;;;;;;;18.83;10.00;;;;;;;4.28;43.20;101085.31;4378674;32;33223;-74
2021/12/22 11:29:57;;;;;;;24.00;12.48;;;;;;;4.20;43.58;101088.69;4390702;32;33669;-74
2021/12/22 11:32:30;;;;;;;18.05;9.77;;;;;;;4.21;43.93;101074.13;4367600;32;32999;-74
2021/12/22 11:35:00;;;;;;;18.27;9.50;;;;;;;4.43;44.03;101083.97;4367902;32;32460;-75
2021/12/22 11:37:28;;;;;;;20.88;9.32;;;;;;;4.37;45.02;101087.22;4380437;32;33206;-74
2021/12/22 11:39:57;;;;;;;22.60;10.38;;;;;;;4.30;54.16;101081.47;4380025;32;34397;-74
2021/12/22 11:42:31;;;;;;;18.73;9.52;;;;;;;4.63;50.70;101084.91;4377995;32;35128;-74
2021/12/22 11:45:05;;;;;;;26.00;11.07;;;;;;;4.74;45.81;101075.78;4365267;32;32773;-75
2021/12/22 11:47:38;;;;;;;23.33;11.35;;;;;;;4.94;44.55;101072.13;4377863;32;34423;-75
2021/12/22 11:50:15;;;;;;;26.58;11.35;;;;;;;4.33;43.93;101069.47;4365338;32;34338;-75
2021/12/22 11:52:51;;;;;;;;;;;;;;;4.42;43.86;101068.66;4378053;32;33906;-75
2021/12/22 11:55:22;;;;;;;19.17;10.27;;;;;;;4.54;43.85;101064.00;4377876;32;34249;-75
2021/12/22 11:58:17;;;;;;;19.98;10.05;;;;;;;4.34;43.83;101064.91;4365522;32;32931;-74
2021/12/22 12:00:53;;;;;;;18.15;9.23;;;;;;;4.50;44.24;101060.69;4377686;32;33600;-74